sensor_id;sensor_type;location;lat;lon;timestamp;pressure;altitude;pressure_sealevel;temperature;humidity
24825;BME280;12910;57.690;11.974;2022-07-23T00:00:29;100512.75;;;16.89;100.00
24825;BME280;12910;57.690;11.974;2022-07-23T00:02:54;100520.47;;;16.96;100.00
24825;BME280;12910;57.690;11.974;2022-07-23T00:05:20;100527.38;;;16.96;100.00
24825;BME280;12910;57.690;11.974;2022-07-23T00:07:45;100524.00;;;16.86;100.00
24825;BME280;12910;57.690;11.974;2022-07-23T00:10:10;100531.78;;;16.85;100.00
24825;BME280;12910;57.690;11.974;2022-07-23T00:12:36;100537.00;;;16.78;100.00
24825;BME280;12910;57.690;11.974;2022-07-23T00:15:03;100542.19;;;16.78;100.00
24825;BME280;12910;57.690;11.974;2022-07-23T00:17:29;100536.16;;;16.79;100.00
24825;BME280;12910;57.690;11.974;2022-07-23T00:19:54;100532.75;;;16.77;100.00
24825;BME280;12910;57.690;11.974;2022-07-23T00:22:20;100523.19;;;16.82;100.00
24825;BME280;12910;57.690;11.974;2022-07-23T00:24:45;100520.50;;;16.89;100.00
24825;BME280;12910;57.690;11.974;2022-07-23T00:27:11;100523.16;;;16.84;100.00
24825;BME280;12910;57.690;11.974;2022-07-23T00:29:36;100526.59;;;16.88;100.00
24825;BME280;12910;57.690;11.974;2022-07-23T00:32:02;100517.97;;;16.86;100.00
24825;BME280;12910;57.690;11.974;2022-07-23T00:34:27;100521.34;;;16.91;100.00
24825;BME280;12910;57.690;11.974;2022-07-23T00:36:52;100521.44;;;16.85;100.00
24825;BME280;12910;57.690;11.974;2022-07-23T00:39:19;100507.72;;;16.76;100.00
24825;BME280;12910;57.690;11.974;2022-07-23T00:41:46;100506.06;;;16.69;100.00
24825;BME280;12910;57.690;11.974;2022-07-23T00:44:26;100509.47;;;16.74;100.00
24825;BME280;12910;57.690;11.974;2022-07-23T00:46:54;100511.06;;;16.85;100.00
24825;BME280;12910;57.690;11.974;2022-07-23T00:49:25;100510.31;;;16.76;100.00
24825;BME280;12910;57.690;11.974;2022-07-23T00:51:51;100505.19;;;16.70;100.00
24825;BME280;12910;57.690;11.974;2022-07-23T00:54:18;100490.53;;;16.69;100.00
24825;BME280;12910;57.690;11.974;2022-07-23T00:56:44;100506.84;;;16.76;100.00
24825;BME280;12910;57.690;11.974;2022-07-23T00:59:10;100496.59;;;16.66;100.00
24825;BME280;12910;57.690;11.974;2022-07-23T01:01:36;100484.72;;;16.50;100.00
24825;BME280;12910;57.690;11.974;2022-07-23T01:04:01;100493.38;;;16.47;100.00
24825;BME280;12910;57.690;11.974;2022-07-23T01:06:27;100505.41;;;16.50;100.00
24825;BME280;12910;57.690;11.974;2022-07-23T01:08:54;100509.88;;;16.34;100.00
24825;BME280;12910;57.690;11.974;2022-07-23T01:11:19;100521.09;;;16.33;100.00
24825;BME280;12910;57.690;11.974;2022-07-23T01:13:45;100525.38;;;16.37;100.00
24825;BME280;12910;57.690;11.974;2022-07-23T01:16:10;100526.28;;;16.34;100.00
24825;BME280;12910;57.690;11.974;2022-07-23T01:18:36;100517.69;;;16.26;100.00
24825;BME280;12910;57.690;11.974;2022-07-23T01:21:02;100527.19;;;16.26;100.00
24825;BME280;12910;57.690;11.974;2022-07-23T01:23:27;100528.00;;;16.31;100.00
24825;BME280;12910;57.690;11.974;2022-07-23T01:25:53;100529.66;;;16.40;100.00
24825;BME280;12910;57.690;11.974;2022-07-23T01:28:19;100536.56;;;16.41;100.00
24825;BME280;12910;57.690;11.974;2022-07-23T01:30:45;100529.69;;;16.35;100.00
24825;BME280;12910;57.690;11.974;2022-07-23T01:33:11;100518.47;;;16.36;100.00
24825;BME280;12910;57.690;11.974;2022-07-23T01:35:36;100521.03;;;16.41;100.00
24825;BME280;12910;57.690;11.974;2022-07-23T01:38:02;100515.78;;;16.47;100.00
24825;BME280;12910;57.690;11.974;2022-07-23T01:40:27;100514.03;;;16.49;100.00
24825;BME280;12910;57.690;11.974;2022-07-23T01:42:52;100520.91;;;16.53;100.00
24825;BME280;12910;57.690;11.974;2022-07-23T01:45:18;100516.59;;;16.52;100.00
24825;BME280;12910;57.690;11.974;2022-07-23T01:47:44;100508.91;;;16.47;100.00
24825;BME280;12910;57.690;11.974;2022-07-23T01:50:09;100503.72;;;16.46;100.00
24825;BME280;12910;57.690;11.974;2022-07-23T01:52:34;100504.56;;;16.49;100.00
24825;BME280;12910;57.690;11.974;2022-07-23T01:55:00;100500.25;;;16.50;100.00
24825;BME280;12910;57.690;11.974;2022-07-23T01:57:25;100494.28;;;16.40;100.00
24825;BME280;12910;57.690;11.974;2022-07-23T01:59:51;100498.59;;;16.43;100.00
24825;BME280;12910;57.690;11.974;2022-07-23T02:02:16;100494.34;;;16.34;100.00
24825;BME280;12910;57.690;11.974;2022-07-23T02:04:42;100494.34;;;16.34;100.00
24825;BME280;12910;57.690;11.974;2022-07-23T02:07:07;100496.88;;;16.40;100.00
24825;BME280;12910;57.690;11.974;2022-07-23T02:09:32;100494.34;;;16.37;100.00
24825;BME280;12910;57.690;11.974;2022-07-23T02:11:58;100486.63;;;16.32;100.00
24825;BME280;12910;57.690;11.974;2022-07-23T02:14:25;100482.28;;;16.36;100.00
24825;BME280;12910;57.690;11.974;2022-07-23T02:16:50;100479.72;;;16.31;100.00
24825;BME280;12910;57.690;11.974;2022-07-23T02:19:16;100477.97;;;16.35;100.00
24825;BME280;12910;57.690;11.974;2022-07-23T02:21:41;100479.63;;;16.41;100.00
24825;BME280;12910;57.690;11.974;2022-07-23T02:24:07;100480.53;;;16.38;100.00
24825;BME280;12910;57.690;11.974;2022-07-23T02:26:32;100484.84;;;16.38;100.00
24825;BME280;12910;57.690;11.974;2022-07-23T02:29:00;100494.31;;;16.39;100.00
24825;BME280;12910;57.690;11.974;2022-07-23T02:31:26;100493.47;;;16.36;100.00
24825;BME280;12910;57.690;11.974;2022-07-23T02:33:52;100494.28;;;16.42;100.00
24825;BME280;12910;57.690;11.974;2022-07-23T02:36:17;100496.84;;;16.43;100.00
24825;BME280;12910;57.690;11.974;2022-07-23T02:38:42;100492.53;;;16.45;100.00
24825;BME280;12910;57.690;11.974;2022-07-23T02:41:08;100492.50;;;16.48;100.00
24825;BME280;12910;57.690;11.974;2022-07-23T02:43:33;100495.09;;;16.48;100.00
24825;BME280;12910;57.690;11.974;2022-07-23T02:45:58;100495.03;;;16.51;100.00
24825;BME280;12910;57.690;11.974;2022-07-23T02:48:24;100487.34;;;16.48;100.00
24825;BME280;12910;57.690;11.974;2022-07-23T02:50:49;100489.06;;;16.45;100.00
24825;BME280;12910;57.690;11.974;2022-07-23T02:53:15;100492.53;;;16.42;100.00
24825;BME280;12910;57.690;11.974;2022-07-23T02:55:40;100483.22;;;16.27;100.00
24825;BME280;12910;57.690;11.974;2022-07-23T02:58:05;100489.28;;;16.22;100.00
24825;BME280;12910;57.690;11.974;2022-07-23T03:00:31;100491.00;;;16.26;100.00
24825;BME280;12910;57.690;11.974;2022-07-23T03:02:56;100497.94;;;16.20;100.00
24825;BME280;12910;57.690;11.974;2022-07-23T03:05:21;100502.28;;;16.18;100.00
24825;BME280;12910;57.690;11.974;2022-07-23T03:07:47;100497.09;;;16.18;100.00
24825;BME280;12910;57.690;11.974;2022-07-23T03:10:12;100493.69;;;16.12;100.00
24825;BME280;12910;57.690;11.974;2022-07-23T03:12:38;100506.56;;;16.19;100.00
24825;BME280;12910;57.690;11.974;2022-07-23T03:15:03;100514.31;;;16.21;100.00
24825;BME280;12910;57.690;11.974;2022-07-23T03:17:29;100506.59;;;16.16;100.00
24825;BME280;12910;57.690;11.974;2022-07-23T03:19:54;100513.47;;;16.16;100.00
24825;BME280;12910;57.690;11.974;2022-07-23T03:22:20;100518.69;;;16.11;100.00
24825;BME280;12910;57.690;11.974;2022-07-23T03:24:45;100527.28;;;16.16;100.00
24825;BME280;12910;57.690;11.974;2022-07-23T03:27:23;100519.53;;;16.16;100.00
24825;BME280;12910;57.690;11.974;2022-07-23T03:29:50;100522.19;;;16.07;100.00
24825;BME280;12910;57.690;11.974;2022-07-23T03:32:16;100516.19;;;16.03;100.00
24825;BME280;12910;57.690;11.974;2022-07-23T03:34:42;100523.03;;;16.09;100.00
24825;BME280;12910;57.690;11.974;2022-07-23T03:37:07;100517.91;;;16.03;100.00
24825;BME280;12910;57.690;11.974;2022-07-23T03:39:32;100519.63;;;16.06;100.00
24825;BME280;12910;57.690;11.974;2022-07-23T03:41:58;100517.00;;;16.10;100.00
24825;BME280;12910;57.690;11.974;2022-07-23T03:44:23;100498.13;;;15.97;100.00
24825;BME280;12910;57.690;11.974;2022-07-23T03:46:48;100513.69;;;15.91;100.00
24825;BME280;12910;57.690;11.974;2022-07-23T03:49:14;100521.41;;;15.96;100.00
24825;BME280;12910;57.690;11.974;2022-07-23T03:51:39;100506.69;;;16.04;100.00
24825;BME280;12910;57.690;11.974;2022-07-23T03:54:05;100501.47;;;16.10;100.00
24825;BME280;12910;57.690;11.974;2022-07-23T03:56:30;100498.84;;;16.15;100.00
24825;BME280;12910;57.690;11.974;2022-07-23T03:58:56;100501.41;;;16.18;100.00
24825;BME280;12910;57.690;11.974;2022-07-23T04:01:21;100489.44;;;16.06;100.00
24825;BME280;12910;57.690;11.974;2022-07-23T04:03:46;100491.97;;;16.14;100.00
24825;BME280;12910;57.690;11.974;2022-07-23T04:06:12;100488.56;;;16.10;100.00
24825;BME280;12910;57.690;11.974;2022-07-23T04:08:37;100488.53;;;16.12;100.00
24825;BME280;12910;57.690;11.974;2022-07-23T04:11:03;100487.81;;;15.93;100.00
24825;BME280;12910;57.690;11.974;2022-07-23T04:13:28;100486.13;;;15.82;100.00
24825;BME280;12910;57.690;11.974;2022-07-23T04:15:54;100498.25;;;15.80;100.00
24825;BME280;12910;57.690;11.974;2022-07-23T04:18:19;100497.41;;;15.73;100.00
24825;BME280;12910;57.690;11.974;2022-07-23T04:20:47;100498.28;;;15.74;100.00
24825;BME280;12910;57.690;11.974;2022-07-23T04:23:12;100498.19;;;15.83;100.00
24825;BME280;12910;57.690;11.974;2022-07-23T04:25:38;100491.31;;;15.88;100.00
24825;BME280;12910;57.690;11.974;2022-07-23T04:28:04;100493.78;;;16.02;100.00
24825;BME280;12910;57.690;11.974;2022-07-23T04:30:29;100491.97;;;16.12;100.00
24825;BME280;12910;57.690;11.974;2022-07-23T04:32:55;100473.84;;;16.15;100.00
24825;BME280;12910;57.690;11.974;2022-07-23T04:35:20;100479.03;;;16.12;100.00
24825;BME280;12910;57.690;11.974;2022-07-23T04:37:46;100477.25;;;16.20;100.00
24825;BME280;12910;57.690;11.974;2022-07-23T04:40:12;100472.88;;;16.27;100.00
24825;BME280;12910;57.690;11.974;2022-07-23T04:42:37;100468.50;;;16.34;100.00
24825;BME280;12910;57.690;11.974;2022-07-23T04:45:03;100465.88;;;16.35;100.00
24825;BME280;12910;57.690;11.974;2022-07-23T04:47:29;100461.59;;;16.33;100.00
24825;BME280;12910;57.690;11.974;2022-07-23T04:49:56;100461.50;;;16.42;100.00
24825;BME280;12910;57.690;11.974;2022-07-23T04:52:21;100457.19;;;16.41;100.00
24825;BME280;12910;57.690;11.974;2022-07-23T04:54:46;100451.28;;;16.31;100.00
24825;BME280;12910;57.690;11.974;2022-07-23T04:57:12;100459.84;;;16.38;100.00
24825;BME280;12910;57.690;11.974;2022-07-23T04:59:37;100449.53;;;16.32;100.00
24825;BME280;12910;57.690;11.974;2022-07-23T05:02:03;100450.47;;;16.28;100.00
24825;BME280;12910;57.690;11.974;2022-07-23T05:04:28;100446.19;;;16.24;100.00
24825;BME280;12910;57.690;11.974;2022-07-23T05:06:53;100442.72;;;16.25;100.00
24825;BME280;12910;57.690;11.974;2022-07-23T05:09:19;100449.50;;;16.35;100.00
24825;BME280;12910;57.690;11.974;2022-07-23T05:11:44;100431.56;;;16.21;100.00
24825;BME280;12910;57.690;11.974;2022-07-23T05:14:10;100434.03;;;16.30;100.00
24825;BME280;12910;57.690;11.974;2022-07-23T05:16:37;100430.53;;;16.36;100.00
24825;BME280;12910;57.690;11.974;2022-07-23T05:19:03;100430.50;;;16.38;100.00
24825;BME280;12910;57.690;11.974;2022-07-23T05:21:28;100431.44;;;16.32;100.00
24825;BME280;12910;57.690;11.974;2022-07-23T05:23:54;100426.31;;;16.29;100.00
24825;BME280;12910;57.690;11.974;2022-07-23T05:26:19;100430.72;;;16.17;100.00
24825;BME280;12910;57.690;11.974;2022-07-23T05:28:44;100442.72;;;16.25;100.00
24825;BME280;12910;57.690;11.974;2022-07-23T05:31:10;100448.72;;;16.30;100.00
24825;BME280;12910;57.690;11.974;2022-07-23T05:33:35;100445.16;;;16.39;100.00
24825;BME280;12910;57.690;11.974;2022-07-23T05:36:01;100441.69;;;16.43;100.00
24825;BME280;12910;57.690;11.974;2022-07-23T05:38:27;100441.69;;;16.41;100.00
24825;BME280;12910;57.690;11.974;2022-07-23T05:40:53;100430.63;;;16.30;100.00
24825;BME280;12910;57.690;11.974;2022-07-23T05:43:19;100438.28;;;16.38;100.00
24825;BME280;12910;57.690;11.974;2022-07-23T05:45:44;100433.91;;;16.41;100.00
24825;BME280;12910;57.690;11.974;2022-07-23T05:48:09;100443.38;;;16.45;100.00
24825;BME280;12910;57.690;11.974;2022-07-23T05:50:35;100439.06;;;16.44;100.00
24825;BME280;12910;57.690;11.974;2022-07-23T05:53:00;100432.25;;;16.37;100.00
24825;BME280;12910;57.690;11.974;2022-07-23T05:55:25;100449.41;;;16.44;100.00
24825;BME280;12910;57.690;11.974;2022-07-23T05:57:54;100452.00;;;16.44;100.00
24825;BME280;12910;57.690;11.974;2022-07-23T06:00:20;100465.84;;;16.40;100.00
24825;BME280;12910;57.690;11.974;2022-07-23T06:02:46;100458.03;;;16.43;100.00
24825;BME280;12910;57.690;11.974;2022-07-23T06:05:11;100450.28;;;16.43;100.00
24825;BME280;12910;57.690;11.974;2022-07-23T06:07:36;100457.34;;;16.29;100.00
24825;BME280;12910;57.690;11.974;2022-07-23T06:10:03;100447.81;;;16.31;100.00
24825;BME280;12910;57.690;11.974;2022-07-23T06:12:29;100445.25;;;16.32;100.00
24825;BME280;12910;57.690;11.974;2022-07-23T06:14:55;100448.66;;;16.34;100.00
24825;BME280;12910;57.690;11.974;2022-07-23T06:17:21;100433.13;;;16.36;100.00
24825;BME280;12910;57.690;11.974;2022-07-23T06:19:46;100440.88;;;16.39;100.00
24825;BME280;12910;57.690;11.974;2022-07-23T06:22:11;100445.06;;;16.49;100.00
24825;BME280;12910;57.690;11.974;2022-07-23T06:24:37;100448.53;;;16.47;100.00
24825;BME280;12910;57.690;11.974;2022-07-23T06:27:03;100442.47;;;16.49;100.00
24825;BME280;12910;57.690;11.974;2022-07-23T06:29:28;100438.91;;;16.58;100.00
24825;BME280;12910;57.690;11.974;2022-07-23T06:31:54;100444.03;;;16.63;100.00
24825;BME280;12910;57.690;11.974;2022-07-23T06:34:19;100439.75;;;16.60;100.00
24825;BME280;12910;57.690;11.974;2022-07-23T06:36:45;100438.84;;;16.63;100.00
24825;BME280;12910;57.690;11.974;2022-07-23T06:39:10;100447.38;;;16.73;100.00
24825;BME280;12910;57.690;11.974;2022-07-23T06:41:35;100432.72;;;16.72;100.00
24825;BME280;12910;57.690;11.974;2022-07-23T06:44:01;100432.72;;;16.70;100.00
24825;BME280;12910;57.690;11.974;2022-07-23T06:46:26;100428.41;;;16.69;100.00
24825;BME280;12910;57.690;11.974;2022-07-23T06:48:51;100436.06;;;16.80;100.00
24825;BME280;12910;57.690;11.974;2022-07-23T06:51:17;100429.16;;;16.80;100.00
24825;BME280;12910;57.690;11.974;2022-07-23T06:53:43;100431.63;;;16.90;100.00
24825;BME280;12910;57.690;11.974;2022-07-23T06:56:08;100433.31;;;16.91;100.00
24825;BME280;12910;57.690;11.974;2022-07-23T06:58:33;100436.69;;;16.99;100.00
24825;BME280;12910;57.690;11.974;2022-07-23T07:00:59;100448.00;;;16.95;100.00
24825;BME280;12910;57.690;11.974;2022-07-23T07:03:24;100440.22;;;16.95;100.00
24825;BME280;12910;57.690;11.974;2022-07-23T07:05:50;100439.34;;;16.93;100.00
24825;BME280;12910;57.690;11.974;2022-07-23T07:08:15;100436.19;;;16.69;100.00
24825;BME280;12910;57.690;11.974;2022-07-23T07:10:41;100438.94;;;16.57;100.00
24825;BME280;12910;57.690;11.974;2022-07-23T07:13:06;100437.19;;;16.57;100.00
24825;BME280;12910;57.690;11.974;2022-07-23T07:15:32;100447.50;;;16.62;100.00
24825;BME280;12910;57.690;11.974;2022-07-23T07:17:57;100456.13;;;16.61;100.00
24825;BME280;12910;57.690;11.974;2022-07-23T07:20:22;100450.09;;;16.63;100.00
24825;BME280;12910;57.690;11.974;2022-07-23T07:22:49;100438.81;;;16.66;100.00
24825;BME280;12910;57.690;11.974;2022-07-23T07:25:14;100455.09;;;16.77;100.00
24825;BME280;12910;57.690;11.974;2022-07-23T07:27:40;100450.88;;;16.69;100.00
24825;BME280;12910;57.690;11.974;2022-07-23T07:30:06;100457.69;;;16.77;100.00
24825;BME280;12910;57.690;11.974;2022-07-23T07:32:32;100444.03;;;16.63;100.00
24825;BME280;12910;57.690;11.974;2022-07-23T07:34:58;100440.69;;;16.51;100.00
24825;BME280;12910;57.690;11.974;2022-07-23T07:37:23;100454.41;;;16.60;100.00
24825;BME280;12910;57.690;11.974;2022-07-23T07:39:49;100446.59;;;16.66;100.00
24825;BME280;12910;57.690;11.974;2022-07-23T07:42:14;100450.91;;;16.67;100.00
24825;BME280;12910;57.690;11.974;2022-07-23T07:44:39;100443.94;;;16.71;100.00
24825;BME280;12910;57.690;11.974;2022-07-23T07:47:05;100450.72;;;16.79;100.00
24825;BME280;12910;57.690;11.974;2022-07-23T07:49:30;100449.91;;;16.77;100.00
24825;BME280;12910;57.690;11.974;2022-07-23T07:51:55;100450.72;;;16.79;100.00
24825;BME280;12910;57.690;11.974;2022-07-23T07:54:21;100462.75;;;16.87;100.00
24825;BME280;12910;57.690;11.974;2022-07-23T07:56:46;100461.06;;;16.82;100.00
24825;BME280;12910;57.690;11.974;2022-07-23T07:59:13;100460.19;;;16.83;100.00
24825;BME280;12910;57.690;11.974;2022-07-23T08:01:40;100467.00;;;16.91;100.00
24825;BME280;12910;57.690;11.974;2022-07-23T08:04:05;100476.50;;;16.89;100.00
24825;BME280;12910;57.690;11.974;2022-07-23T08:06:30;100479.94;;;16.91;100.00
24825;BME280;12910;57.690;11.974;2022-07-23T08:08:56;100479.06;;;16.93;100.00
24825;BME280;12910;57.690;11.974;2022-07-23T08:11:21;100478.22;;;16.90;100.00
24825;BME280;12910;57.690;11.974;2022-07-23T08:13:47;100477.41;;;16.88;100.00
24825;BME280;12910;57.690;11.974;2022-07-23T08:16:13;100477.38;;;16.89;100.00
24825;BME280;12910;57.690;11.974;2022-07-23T08:18:38;100485.09;;;16.97;100.00
24825;BME280;12910;57.690;11.974;2022-07-23T08:21:03;100481.69;;;16.90;100.00
24825;BME280;12910;57.690;11.974;2022-07-23T08:23:30;100485.91;;;17.01;100.00
24825;BME280;12910;57.690;11.974;2022-07-23T08:25:56;100490.97;;;17.08;100.00
24825;BME280;12910;57.690;11.974;2022-07-23T08:28:22;100495.25;;;17.09;100.00
24825;BME280;12910;57.690;11.974;2022-07-23T08:30:47;100494.38;;;17.13;100.00
24825;BME280;12910;57.690;11.974;2022-07-23T08:33:15;100485.78;;;17.08;100.00
24825;BME280;12910;57.690;11.974;2022-07-23T08:35:49;100490.94;;;17.11;100.00
24825;BME280;12910;57.690;11.974;2022-07-23T08:38:17;100492.66;;;17.12;100.00
24825;BME280;12910;57.690;11.974;2022-07-23T08:40:48;100502.06;;;17.18;100.00
24825;BME280;12910;57.690;11.974;2022-07-23T08:43:16;100498.53;;;17.22;100.00
24825;BME280;12910;57.690;11.974;2022-07-23T08:45:44;100507.91;;;17.34;100.00
24825;BME280;12910;57.690;11.974;2022-07-23T08:48:15;100498.28;;;17.42;100.00
24825;BME280;12910;57.690;11.974;2022-07-23T08:50:46;100502.56;;;17.45;100.00
24825;BME280;12910;57.690;11.974;2022-07-23T08:53:12;100496.53;;;17.44;100.00
24825;BME280;12910;57.690;11.974;2022-07-23T08:55:38;100496.56;;;17.41;100.00
24825;BME280;12910;57.690;11.974;2022-07-23T08:58:04;100487.09;;;17.40;100.00
24825;BME280;12910;57.690;11.974;2022-07-23T09:00:29;100474.25;;;17.31;100.00
24825;BME280;12910;57.690;11.974;2022-07-23T09:02:55;100485.34;;;17.42;100.00
24825;BME280;12910;57.690;11.974;2022-07-23T09:05:21;100484.47;;;17.43;100.00
24825;BME280;12910;57.690;11.974;2022-07-23T09:08:09;100484.38;;;17.48;100.00
24825;BME280;12910;57.690;11.974;2022-07-23T09:15:57;100477.59;;;17.39;100.00
24825;BME280;12910;57.690;11.974;2022-07-23T09:21:16;100484.25;;;17.57;100.00
24825;BME280;12910;57.690;11.974;2022-07-23T09:23:52;100491.13;;;17.60;100.00
24825;BME280;12910;57.690;11.974;2022-07-23T09:26:25;100493.94;;;17.44;100.00
24825;BME280;12910;57.690;11.974;2022-07-23T09:28:58;100489.50;;;17.51;100.00
24825;BME280;12910;57.690;11.974;2022-07-23T09:31:25;100494.72;;;17.50;100.00
24825;BME280;12910;57.690;11.974;2022-07-23T09:34:07;100498.16;;;17.52;100.00
24825;BME280;12910;57.690;11.974;2022-07-23T09:36:32;100499.78;;;17.59;100.00
24825;BME280;12910;57.690;11.974;2022-07-23T09:38:58;100494.63;;;17.56;100.00
24825;BME280;12910;57.690;11.974;2022-07-23T09:41:23;100501.63;;;17.51;100.00
24825;BME280;12910;57.690;11.974;2022-07-23T09:43:54;100499.16;;;17.41;100.00
24825;BME280;12910;57.690;11.974;2022-07-23T09:46:25;100506.84;;;17.48;100.00
24825;BME280;12910;57.690;11.974;2022-07-23T09:48:52;100506.81;;;17.51;100.00
24825;BME280;12910;57.690;11.974;2022-07-23T09:51:19;100501.59;;;17.54;100.00
24825;BME280;12910;57.690;11.974;2022-07-23T09:53:49;100513.66;;;17.55;100.00
24825;BME280;12910;57.690;11.974;2022-07-23T09:56:15;100498.25;;;17.46;100.00
24825;BME280;12910;57.690;11.974;2022-07-23T09:58:41;100505.22;;;17.40;100.00
24825;BME280;12910;57.690;11.974;2022-07-23T10:01:14;100504.41;;;17.37;100.00
24825;BME280;12910;57.690;11.974;2022-07-23T10:03:41;100514.81;;;17.34;100.00
24825;BME280;12910;57.690;11.974;2022-07-23T10:06:08;100508.84;;;17.27;100.00
24825;BME280;12910;57.690;11.974;2022-07-23T10:08:35;100517.47;;;17.29;100.00
24825;BME280;12910;57.690;11.974;2022-07-23T10:11:01;100513.91;;;17.38;100.00
24825;BME280;12910;57.690;11.974;2022-07-23T10:13:27;100515.56;;;17.43;100.00
24825;BME280;12910;57.690;11.974;2022-07-23T10:16:11;100515.34;;;17.56;100.00
24825;BME280;12910;57.690;11.974;2022-07-23T10:18:37;100517.03;;;17.60;100.00
24825;BME280;12910;57.690;11.974;2022-07-23T10:21:06;100531.69;;;17.63;100.00
24825;BME280;12910;57.690;11.974;2022-07-23T10:23:41;100521.31;;;17.64;100.00
24825;BME280;12910;57.690;11.974;2022-07-23T10:29:06;100543.03;;;17.55;100.00
24825;BME280;12910;57.690;11.974;2022-07-23T10:37:07;100530.03;;;17.58;100.00
24825;BME280;12910;57.690;11.974;2022-07-23T10:39:34;100530.22;;;17.44;100.00
24825;BME280;12910;57.690;11.974;2022-07-23T10:42:16;100529.66;;;17.21;100.00
24825;BME280;12910;57.690;11.974;2022-07-23T10:44:47;100515.84;;;17.22;100.00
24825;BME280;12910;57.690;11.974;2022-07-23T10:47:21;100531.84;;;17.52;100.00
24825;BME280;12910;57.690;11.974;2022-07-23T10:50:22;100531.06;;;17.45;100.00
24825;BME280;12910;57.690;11.974;2022-07-23T10:58:04;100516.69;;;17.22;100.00
24825;BME280;12910;57.690;11.974;2022-07-23T11:00:32;100508.25;;;17.08;100.00
24825;BME280;12910;57.690;11.974;2022-07-23T11:03:00;100524.44;;;17.24;100.00
24825;BME280;12910;57.690;11.974;2022-07-23T11:05:43;100519.06;;;17.39;100.00
24825;BME280;12910;57.690;11.974;2022-07-23T11:08:12;100519.66;;;17.57;100.00
24825;BME280;12910;57.690;11.974;2022-07-23T11:26:46;100521.00;;;17.84;100.00
24825;BME280;12910;57.690;11.974;2022-07-23T11:34:47;100524.31;;;17.92;100.00
24825;BME280;12910;57.690;11.974;2022-07-23T11:37:35;100520.00;;;17.91;100.00
24825;BME280;12910;57.690;11.974;2022-07-23T11:40:02;100518.31;;;17.89;100.00
24825;BME280;12910;57.690;11.974;2022-07-23T11:42:28;100514.75;;;17.99;100.00
24825;BME280;12910;57.690;11.974;2022-07-23T11:44:54;100519.22;;;17.88;100.00
24825;BME280;12910;57.690;11.974;2022-07-23T11:47:23;100523.72;;;17.75;100.00
24825;BME280;12910;57.690;11.974;2022-07-23T11:49:57;100519.38;;;17.77;100.00
24825;BME280;12910;57.690;11.974;2022-07-23T11:52:23;100527.09;;;17.82;100.00
24825;BME280;12910;57.690;11.974;2022-07-23T11:54:51;100516.66;;;17.85;100.00
24825;BME280;12910;57.690;11.974;2022-07-23T11:57:17;100524.31;;;17.92;100.00
24825;BME280;12910;57.690;11.974;2022-07-23T11:59:43;100522.56;;;17.96;100.00
24825;BME280;12910;57.690;11.974;2022-07-23T12:02:11;100517.25;;;18.04;100.00
24825;BME280;12910;57.690;11.974;2022-07-23T12:07:02;100513.59;;;18.17;100.00
24825;BME280;12910;57.690;11.974;2022-07-23T12:09:28;100521.34;;;18.19;100.00
24825;BME280;12910;57.690;11.974;2022-07-23T12:11:58;100524.69;;;18.26;100.00
24825;BME280;12910;57.690;11.974;2022-07-23T12:14:24;100523.00;;;18.21;100.00
24825;BME280;12910;57.690;11.974;2022-07-23T12:17:06;100516.91;;;18.24;100.00
24825;BME280;12910;57.690;11.974;2022-07-23T12:19:32;100526.38;;;18.28;100.00
24825;BME280;12910;57.690;11.974;2022-07-23T12:21:58;100527.38;;;18.19;100.00
24825;BME280;12910;57.690;11.974;2022-07-23T12:24:23;100515.16;;;18.26;100.00
24825;BME280;12910;57.690;11.974;2022-07-23T12:27:10;100520.97;;;18.41;100.00
24825;BME280;12910;57.690;11.974;2022-07-23T12:29:36;100516.53;;;18.46;100.00
24825;BME280;12910;57.690;11.974;2022-07-23T12:32:02;100518.13;;;18.55;100.00
24825;BME280;12910;57.690;11.974;2022-07-23T12:34:27;100523.47;;;18.45;100.00
24825;BME280;12910;57.690;11.974;2022-07-23T12:36:53;100519.19;;;18.43;100.00
24825;BME280;12910;57.690;11.974;2022-07-23T12:39:31;100532.94;;;18.48;100.00
24825;BME280;12910;57.690;11.974;2022-07-23T12:41:57;100534.03;;;18.34;100.00
24825;BME280;12910;57.690;11.974;2022-07-23T12:44:22;100530.66;;;18.29;100.00
24825;BME280;12910;57.690;11.974;2022-07-23T12:46:53;100534.31;;;18.19;100.00
24825;BME280;12910;57.690;11.974;2022-07-23T12:49:26;100536.84;;;18.22;100.00
24825;BME280;12910;57.690;11.974;2022-07-23T12:51:52;100538.28;;;18.38;100.00
24825;BME280;12910;57.690;11.974;2022-07-23T12:54:17;100536.53;;;18.41;100.00
24825;BME280;12910;57.690;11.974;2022-07-23T12:56:46;100530.69;;;18.28;100.00
24825;BME280;12910;57.690;11.974;2022-07-23T12:59:14;100524.44;;;18.40;100.00
24825;BME280;12910;57.690;11.974;2022-07-23T13:01:43;100526.09;;;18.44;100.00
24825;BME280;12910;57.690;11.974;2022-07-23T13:04:20;100524.84;;;18.65;100.00
24825;BME280;12910;57.690;11.974;2022-07-23T13:06:53;100520.81;;;18.50;100.00
24825;BME280;12910;57.690;11.974;2022-07-23T13:09:24;100522.22;;;18.66;100.00
24825;BME280;12910;57.690;11.974;2022-07-23T13:11:51;100515.97;;;18.77;100.00
24825;BME280;12910;57.690;11.974;2022-07-23T13:14:18;100518.50;;;18.80;100.00